Time;durP1;ratioP1;P1;durP2;ratioP2;P2;SDS_P1;SDS_P2;PMS_P1;PMS_P2;Temp;Humidity;BMP_temperature;BMP_pressure;BME280_temperature;BME280_humidity;BME280_pressure;Samples;Min_cycle;Max_cycle;Signal;HPM_P1;HPM_P2
2023/02/05 00:02:09;;;;;;;16.33;7.15;;;6.20;67.20;;;0.97;100.00;97338.72;4919550;28;20053;-50
2023/02/05 00:04:36;;;;;;;14.25;7.30;;;6.20;67.20;;;0.94;100.00;97331.22;4935977;28;20051;-55
2023/02/05 00:07:04;;;;;;;20.20;7.75;;;6.10;67.10;;;0.94;100.00;97336.44;4954454;28;20081;-53
2023/02/05 00:09:32;;;;;;;24.08;7.85;;;6.10;67.10;;;0.91;100.00;97329.72;4950728;28;20014;-54
2023/02/05 00:11:59;;;;;;;23.48;8.02;;;6.10;67.10;;;0.88;100.00;97337.09;4946426;28;20396;-53
2023/02/05 00:14:25;;;;;;;20.67;7.60;;;6.00;67.00;;;0.85;100.00;97332.97;4950967;28;20027;-51
2023/02/05 00:16:54;;;;;;;19.33;7.78;;;6.00;67.00;;;0.78;100.00;97324.09;4948667;28;20462;-53
2023/02/05 00:19:20;;;;;;;14.10;7.50;;;5.90;67.00;;;0.74;100.00;97328.03;4950896;28;20030;-51
2023/02/05 00:21:52;;;;;;;20.88;8.95;;;5.90;67.00;;;0.69;100.00;97319.84;4955795;28;20060;-51
2023/02/05 00:24:21;;;;;;;15.82;8.32;;;5.90;67.10;;;0.71;100.00;97319.66;4952919;28;20448;-49
2023/02/05 00:26:53;;;;;;;23.08;8.15;;;5.80;67.20;;;0.70;100.00;97318.84;4934015;28;20081;-49
2023/02/05 00:29:19;;;;;;;19.67;7.90;;;5.80;67.30;;;0.71;100.00;97322.28;4935747;28;20093;-51
2023/02/05 00:31:54;;;;;;;30.83;8.77;;;5.80;67.30;;;0.71;100.00;97317.84;4950605;28;20485;-49
2023/02/05 00:34:23;;;;;;;17.90;7.90;;;5.80;67.40;;;0.73;100.00;97317.72;4919835;29;20099;-50
2023/02/05 00:36:52;;;;;;;30.65;8.88;;;5.80;67.40;;;0.73;100.00;97310.66;4933638;28;20089;-49
2023/02/05 00:39:18;;;;;;;23.88;9.73;;;5.80;67.50;;;0.73;100.00;97313.28;4952408;28;20089;-50
2023/02/05 00:41:50;;;;;;;23.58;9.20;;;5.80;67.50;;;0.76;100.00;97314.75;4948996;28;20098;-50
2023/02/05 00:44:22;;;;;;;21.98;8.57;;;5.80;67.60;;;0.78;100.00;97310.97;4955774;28;20362;-52
2023/02/05 00:47:01;;;;;;;34.15;10.70;;;5.80;67.60;;;0.78;100.00;97323.28;4951095;28;20034;-54
2023/02/05 00:49:29;;;;;;;27.67;10.63;;;5.90;67.80;;;0.82;100.00;97324.63;4951622;28;20037;-51
2023/02/05 00:51:55;;;;;;;22.73;10.63;;;5.90;67.80;;;0.84;100.00;97323.44;4948898;28;20038;-52
2023/02/05 00:54:24;;;;;;;23.05;10.98;;;5.90;67.80;;;0.89;100.00;97323.81;4962141;28;20393;-49
2023/02/05 00:56:50;;;;;;;26.67;11.07;;;5.90;67.90;;;0.94;100.00;97323.34;4952054;28;20026;-49
2023/02/05 00:59:22;;;;;;;28.38;10.77;;;5.90;67.90;;;1.00;100.00;97327.09;4951035;28;20034;-49
2023/02/05 01:01:54;;;;;;;23.67;10.55;;;6.00;68.10;;;1.02;100.00;97325.13;4931059;29;20026;-54
2023/02/05 01:04:20;;;;;;;31.27;11.95;;;6.00;68.10;;;1.04;100.00;97317.94;4945919;28;20027;-52
2023/02/05 01:06:48;;;;;;;24.10;10.88;;;6.10;68.10;;;1.06;100.00;97322.00;4933259;28;20057;-52
2023/02/05 01:09:17;;;;;;;25.13;11.13;;;6.00;68.10;;;1.07;100.00;97320.22;4947563;28;20077;-54
2023/02/05 01:11:49;;;;;;;24.13;9.75;;;6.10;68.20;;;1.05;100.00;97317.75;4959157;28;20034;-50
2023/02/05 01:14:14;;;;;;;27.83;12.38;;;6.10;68.10;;;1.03;100.00;97316.28;4952935;28;20066;-49
2023/02/05 01:16:49;;;;;;;26.88;10.55;;;6.10;68.00;;;0.97;100.00;97315.09;4948024;28;20489;-49
2023/02/05 01:19:15;;;;;;;28.95;11.05;;;6.10;68.00;;;1.00;100.00;97314.78;4959009;28;20019;-52
2023/02/05 01:21:41;;;;;;;25.80;11.15;;;6.10;68.00;;;0.99;100.00;97300.03;4950260;28;20027;-50
2023/02/05 01:24:13;;;;;;;26.38;11.00;;;6.00;68.00;;;0.99;100.00;97309.72;4934494;28;20114;-50
2023/02/05 01:26:39;;;;;;;25.33;11.77;;;6.00;68.10;;;1.02;100.00;97306.75;4940398;28;20125;-51
2023/02/05 01:29:07;;;;;;;24.15;11.75;;;6.10;68.10;;;1.03;100.00;97311.03;4932128;29;20102;-52
2023/02/05 01:31:33;;;;;;;21.23;10.43;;;6.00;68.10;;;1.03;100.00;97314.47;4931471;29;20401;-51
2023/02/05 01:34:06;;;;;;;28.88;11.32;;;6.10;68.20;;;1.04;100.00;97312.69;4928351;29;20027;-49
2023/02/05 01:36:32;;;;;;;20.17;10.35;;;6.00;68.10;;;1.03;100.00;97318.91;4931051;29;20569;-49
2023/02/05 01:39:00;;;;;;;22.20;10.23;;;6.10;68.20;;;1.02;100.00;97314.63;4919684;28;20109;-50
2023/02/05 01:41:28;;;;;;;25.73;11.00;;;6.10;68.20;;;1.02;100.00;97315.47;4938799;28;20031;-49
2023/02/05 01:44:28;;;;;;;23.08;10.68;;;6.10;68.20;;;1.02;100.00;97318.09;4934549;28;20026;-53
2023/02/05 01:46:55;;;;;;;22.65;10.07;;;6.10;68.30;;;1.02;100.00;97312.84;4938016;28;20037;-51
2023/02/05 01:49:35;;;;;;;25.70;10.68;;;6.10;68.20;;;1.02;100.00;97315.47;4931650;28;20029;-50
2023/02/05 01:52:14;;;;;;;22.77;10.52;;;6.10;68.20;;;1.05;100.00;97309.88;4931847;29;20375;-49
2023/02/05 01:54:51;;;;;;;21.20;11.30;;;6.10;68.30;;;1.07;100.00;97297.44;4913763;29;20019;-49
2023/02/05 01:57:24;;;;;;;23.27;10.10;;;6.10;68.30;;;1.07;100.00;97301.88;4905187;29;20605;-53
2023/02/05 01:59:54;;;;;;;24.48;10.93;;;6.10;68.30;;;1.09;100.00;97297.25;4899928;29;20034;-52
2023/02/05 02:02:20;;;;;;;28.58;11.27;;;6.10;68.30;;;1.08;100.00;97293.00;4917416;29;20075;-54
2023/02/05 02:04:59;;;;;;;26.42;10.80;;;6.10;68.30;;;1.07;100.00;97294.00;4936311;28;20481;-55
2023/02/05 02:07:25;;;;;;;24.40;11.02;;;6.10;68.30;;;1.06;100.00;97290.50;4914968;29;20023;-53
2023/02/05 02:09:54;;;;;;;20.35;10.13;;;6.10;68.20;;;1.04;100.00;97296.94;4908829;29;20027;-53
2023/02/05 02:12:29;;;;;;;22.85;11.10;;;6.10;68.20;;;1.05;100.00;97288.88;4904867;29;20031;-50
2023/02/05 02:15:03;;;;;;;23.73;11.07;;;6.10;68.30;;;1.08;100.00;97290.38;4918456;29;20106;-54
2023/02/05 02:17:50;;;;;;;21.42;10.50;;;6.10;68.30;;;1.06;100.00;97284.44;4917525;29;20023;-49
2023/02/05 02:20:39;;;;;;;21.23;10.43;;;6.10;68.20;;;1.01;100.00;97276.25;4918915;29;20537;-53
2023/02/05 02:24:17;;;;;;;18.60;8.85;;;6.10;68.20;;;0.95;100.00;97276.91;4934133;29;20397;-54
2023/02/05 02:27:58;;;;;;;26.88;9.65;;;6.00;68.00;;;0.86;100.00;97274.28;5009099;23;20793;-55
2023/02/05 02:31:16;;;;;;;26.10;9.93;;;6.00;67.90;;;0.75;100.00;97273.75;4986338;28;20120;-54
2023/02/05 02:34:00;;;;;;;19.52;9.52;;;5.80;67.80;;;0.64;100.00;97282.75;4967272;28;20039;-49
2023/02/05 02:36:35;;;;;;;19.70;9.32;;;5.70;67.60;;;0.53;100.00;97280.44;5015265;28;20029;-56
2023/02/05 02:39:26;;;;;;;21.60;9.35;;;5.60;67.50;;;0.39;100.00;97274.81;5030244;28;20486;-50
2023/02/05 02:42:30;;;;;;;27.65;10.70;;;5.60;67.50;;;0.30;100.00;97275.78;5013559;28;20099;-52
2023/02/05 02:45:03;;;;;;;23.50;11.52;;;5.50;67.60;;;0.27;100.00;97272.66;5026533;28;20048;-52
2023/02/05 02:47:47;;;;;;;22.95;10.07;;;5.30;67.60;;;0.22;100.00;97273.94;5015485;28;20028;-49
2023/02/05 02:50:47;;;;;;;28.90;10.38;;;5.30;67.70;;;0.12;100.00;97270.63;5029346;28;20029;-52
2023/02/05 02:53:35;;;;;;;21.60;9.68;;;5.20;67.60;;;0.06;100.00;97258.16;5002657;28;20052;-48
2023/02/05 02:56:18;;;;;;;26.23;10.25;;;5.10;67.60;;;-0.05;100.00;97261.06;5003467;28;20060;-51
2023/02/05 02:59:21;;;;;;;;;;;5.00;67.60;;;-0.20;100.00;97267.84;5019257;28;20431;-50
2023/02/05 03:01:58;;;;;;;24.48;7.60;;;4.90;67.40;;;-0.33;100.00;97261.25;5022985;28;19912;-50
2023/02/05 03:04:35;;;;;;;21.38;11.20;;;4.80;67.40;;;-0.43;100.00;97260.53;4998668;28;20021;-58
2023/02/05 03:07:27;;;;;;;26.75;11.02;;;4.70;67.40;;;-0.49;100.00;97263.75;5021499;28;20028;-53
2023/02/05 03:10:19;;;;;;;27.02;11.60;;;4.60;67.50;;;-0.52;100.00;97253.59;5012269;28;20021;-58
2023/02/05 03:12:45;;;;;;;31.23;11.85;;;4.60;67.70;;;-0.55;100.00;97248.66;5012205;28;20033;-49
2023/02/05 03:15:17;;;;;;;29.63;14.23;;;4.50;67.80;;;-0.61;100.00;97239.63;5014332;28;20086;-50
2023/02/05 03:17:46;;;;;;;26.60;11.07;;;4.40;67.90;;;-0.66;100.00;97241.88;5031113;28;20104;-50
2023/02/05 03:20:57;;;;;;;26.30;11.70;;;4.40;67.90;;;-0.74;100.00;97231.38;5016465;28;20028;-50
2023/02/05 03:23:33;;;;;;;33.70;11.30;;;4.30;67.80;;;-0.83;100.00;97232.28;4991734;28;20036;-55
2023/02/05 03:25:59;;;;;;;27.85;11.50;;;4.20;67.70;;;-0.92;100.00;97236.63;5012056;28;20051;-54
2023/02/05 03:28:25;;;;;;;34.47;13.05;;;4.10;67.70;;;-0.94;100.00;97235.94;5004045;28;20583;-52
2023/02/05 03:31:28;;;;;;;27.05;12.43;;;4.10;67.90;;;-1.01;100.00;97238.34;5025222;28;20486;-50
2023/02/05 03:35:12;;;;;;;22.88;11.98;;;4.00;68.00;;;-1.04;100.00;97236.03;5019636;28;20025;-54
2023/02/05 03:38:32;;;;;;;29.65;12.23;;;3.90;67.90;;;-1.13;100.00;97228.28;5014088;28;20064;-49
2023/02/05 03:41:07;;;;;;;42.10;12.15;;;3.90;68.10;;;-1.23;100.00;97223.94;4999485;28;20033;-53
2023/02/05 03:44:11;;;;;;;29.25;12.57;;;3.70;68.00;;;-1.27;100.00;97217.38;5017626;28;20125;-51
2023/02/05 03:47:43;;;;;;;83.55;17.08;;;3.70;68.20;;;-1.23;100.00;97230.97;5015080;28;20041;-51
2023/02/05 03:50:50;;;;;;;29.67;11.25;;;3.70;68.50;;;-1.21;100.00;97216.78;5029186;28;20071;-53
2023/02/05 03:54:05;;;;;;;30.40;13.43;;;3.70;68.60;;;-1.28;100.00;97215.75;5013344;28;20033;-56
2023/02/05 03:57:26;;;;;;;31.60;13.63;;;3.70;68.60;;;-1.33;100.00;97214.56;5019786;28;20033;-54
2023/02/05 03:59:58;;;;;;;32.10;13.40;;;3.60;68.60;;;-1.37;100.00;97210.59;5000258;28;20124;-51
2023/02/05 04:02:24;;;;;;;42.05;14.15;;;3.50;68.60;;;-1.43;100.00;97206.78;5018266;28;20033;-56
2023/02/05 04:04:50;;;;;;;34.58;12.90;;;3.50;68.60;;;-1.47;100.00;97208.06;5014046;28;20027;-52
2023/02/05 04:07:16;;;;;;;24.25;12.40;;;3.50;68.50;;;-1.49;100.00;97210.00;5010874;28;20463;-51
2023/02/05 04:09:45;;;;;;;34.85;12.95;;;3.50;68.60;;;-1.52;100.00;97210.31;5027386;28;20033;-56
2023/02/05 04:12:20;;;;;;;27.25;11.68;;;3.50;68.70;;;-1.53;100.00;97206.06;5029426;28;20048;-53
2023/02/05 04:14:46;;;;;;;25.55;11.77;;;3.50;68.70;;;-1.52;100.00;97213.72;5027684;28;20572;-58
2023/02/05 04:17:12;;;;;;;31.92;13.55;;;3.40;68.60;;;-1.57;100.00;97215.97;5029062;28;20064;-56
2023/02/05 04:19:41;;;;;;;35.47;14.35;;;3.40;68.60;;;-1.59;100.00;97210.06;5003379;28;20032;-55
2023/02/05 04:22:12;;;;;;;39.85;14.35;;;3.40;68.60;;;-1.63;100.00;97212.16;5010916;28;20040;-53
2023/02/05 04:24:41;;;;;;;38.03;13.27;;;3.40;68.70;;;-1.64;100.00;97214.91;5025109;28;20016;-52
2023/02/05 04:27:09;;;;;;;35.72;15.30;;;3.30;68.70;;;-1.69;100.00;97210.16;5011424;28;20557;-51
2023/02/05 04:29:35;;;;;;;87.68;16.77;;;3.30;68.70;;;-1.70;100.00;97210.28;5004994;28;20037;-59
2023/02/05 04:32:01;;;;;;;29.52;14.40;;;3.30;68.80;;;-1.69;100.00;97210.16;5022770;28;20075;-53
2023/02/05 04:34:30;;;;;;;32.85;13.43;;;3.30;68.80;;;-1.70;100.00;97200.66;5029166;28;20024;-54
2023/02/05 04:36:55;;;;;;;38.42;13.48;;;3.30;68.80;;;-1.71;100.00;97190.34;5026273;28;20504;-54
2023/02/05 04:39:24;;;;;;;44.90;16.10;;;3.30;68.80;;;-1.73;100.00;97192.28;5029637;28;20104;-50
2023/02/05 04:41:50;;;;;;;35.30;15.27;;;3.20;68.80;;;-1.76;100.00;97188.16;5010671;28;20035;-54
2023/02/05 04:44:18;;;;;;;39.63;15.23;;;3.30;68.90;;;-1.79;100.00;97193.69;5019034;28;20016;-56
2023/02/05 04:46:44;;;;;;;66.93;16.48;;;3.20;68.90;;;-1.78;100.00;97205.81;5022543;28;20029;-49
2023/02/05 04:49:10;;;;;;;42.67;14.63;;;3.20;68.90;;;-1.74;100.00;97214.97;5025265;28;20027;-52
2023/02/05 04:51:38;;;;;;;96.10;16.05;;;3.20;69.00;;;-1.72;100.00;97204.41;5026514;28;20375;-52
2023/02/05 04:54:22;;;;;;;65.07;15.73;;;3.30;69.10;;;-1.69;100.00;97207.53;5009432;28;20035;-51
2023/02/05 04:56:48;;;;;;;150.02;20.17;;;3.20;69.20;;;-1.70;100.00;97223.34;5007557;28;20016;-51
2023/02/05 04:59:14;;;;;;;134.38;19.15;;;3.30;69.20;;;-1.68;100.00;97217.00;5010813;28;20390;-54
2023/02/05 05:01:40;;;;;;;536.03;33.35;;;3.30;69.30;;;-1.66;100.00;97203.78;5004640;28;20455;-52
2023/02/05 05:04:08;;;;;;;300.13;25.33;;;3.30;69.30;;;-1.63;100.00;97199.09;5023855;28;20020;-54
2023/02/05 05:06:35;;;;;;;121.28;21.80;;;3.30;69.40;;;-1.59;100.00;97201.41;5024889;28;20566;-54
2023/02/05 05:09:04;;;;;;;399.42;32.95;;;3.30;69.50;;;-1.57;100.00;97196.84;5020108;28;20029;-49
2023/02/05 05:11:32;;;;;;;112.40;19.38;;;3.40;69.60;;;-1.49;100.00;97196.94;5009181;28;20418;-57
2023/02/05 05:13:59;;;;;;;294.83;23.70;;;3.40;69.70;;;-1.46;100.00;97200.06;5029517;28;20043;-49
2023/02/05 05:16:25;;;;;;;225.88;21.67;;;3.50;69.70;;;-1.42;100.00;97211.03;5009437;28;20166;-53
2023/02/05 05:18:51;;;;;;;85.57;16.90;;;3.50;69.60;;;-1.44;100.00;97208.59;5011553;28;20117;-49
2023/02/05 05:21:18;;;;;;;74.65;16.58;;;3.50;69.50;;;-1.52;100.00;97216.34;5015829;28;20021;-53
2023/02/05 05:23:50;;;;;;;197.25;22.10;;;3.50;69.40;;;-1.57;100.00;97213.34;5020643;28;20021;-54
2023/02/05 05:26:16;;;;;;;114.05;20.00;;;3.50;69.30;;;-1.61;100.00;97216.41;5025171;28;20044;-54
2023/02/05 05:28:51;;;;;;;55.30;17.33;;;3.50;69.30;;;-1.56;100.00;97204.56;4996875;28;20530;-52
2023/02/05 05:31:20;;;;;;;43.28;16.63;;;3.40;69.30;;;-1.60;100.00;97213.63;5032616;28;20020;-53
2023/02/05 05:33:52;;;;;;;45.55;16.27;;;3.40;69.30;;;-1.65;100.00;97210.66;5014761;28;20032;-54
2023/02/05 05:36:20;;;;;;;49.93;16.10;;;3.40;69.20;;;-1.68;100.00;97209.16;5005568;28;20021;-54
2023/02/05 05:38:52;;;;;;;50.20;17.00;;;3.40;69.10;;;-1.74;100.00;97214.97;5026778;28;20328;-55
2023/02/05 05:44:11;;;;;;;54.75;16.38;;;3.30;69.00;;;-1.80;100.00;97226.03;5012363;28;20579;-55
2023/02/05 05:46:37;;;;;;;44.38;15.57;;;3.20;69.00;;;-1.79;100.00;97229.44;5026751;28;20141;-53
2023/02/05 05:49:06;;;;;;;202.73;23.80;;;3.20;69.20;;;-1.80;100.00;97233.84;5008553;28;20020;-53
2023/02/05 05:51:34;;;;;;;58.78;17.67;;;3.20;69.30;;;-1.75;100.00;97238.66;5027468;28;20032;-56
2023/02/05 05:54:03;;;;;;;100.75;18.40;;;3.20;69.40;;;-1.73;100.00;97241.94;5020192;28;20422;-51
2023/02/05 05:56:41;;;;;;;129.00;19.05;;;3.30;69.50;;;-1.68;100.00;97234.47;5029009;28;20538;-50
2023/02/05 05:59:13;;;;;;;556.42;35.67;;;3.30;69.60;;;-1.65;100.00;97234.19;5018633;28;20550;-58
2023/02/05 06:01:42;;;;;;;423.58;33.92;;;3.40;69.60;;;-1.59;100.00;97245.84;5008800;28;20063;-58
2023/02/05 06:04:07;;;;;;;381.50;29.67;;;3.40;69.60;;;-1.54;100.00;97243.59;5026651;28;20189;-53
2023/02/05 06:06:34;;;;;;;360.73;30.23;;;3.50;69.80;;;-1.47;100.00;97242.88;5025955;28;20436;-56
2023/02/05 06:08:59;;;;;;;498.45;39.28;;;3.50;69.90;;;-1.40;100.00;97235.25;5027362;28;20021;-55
2023/02/05 06:11:25;;;;;;;481.88;34.28;;;3.50;69.90;;;-1.34;100.00;97239.88;5008783;28;20025;-55
2023/02/05 06:13:54;;;;;;;496.35;34.40;;;3.60;70.00;;;-1.34;100.00;97247.72;5000170;28;20383;-55
2023/02/05 06:16:20;;;;;;;402.38;31.17;;;3.60;70.00;;;-1.34;100.00;97249.53;4996782;28;20021;-52
2023/02/05 06:18:46;;;;;;;415.13;30.70;;;3.60;70.00;;;-1.34;100.00;97255.56;5025894;28;20025;-52
2023/02/05 06:21:12;;;;;;;378.67;29.73;;;3.60;69.90;;;-1.35;100.00;97255.72;5009463;28;20046;-51
2023/02/05 06:23:41;;;;;;;310.85;27.42;;;3.60;69.90;;;-1.30;100.00;97253.47;4997968;28;20070;-53
2023/02/05 06:26:07;;;;;;;384.65;32.38;;;3.60;69.90;;;-1.29;100.00;97250.69;5019439;28;20064;-55
2023/02/05 06:28:33;;;;;;;292.90;27.80;;;3.60;69.90;;;-1.29;100.00;97257.72;4990506;28;20147;-51
2023/02/05 06:31:01;;;;;;;185.02;23.13;;;3.70;70.00;;;-1.26;100.00;97265.28;5009234;28;20020;-53
2023/02/05 06:33:27;;;;;;;335.60;29.05;;;3.70;69.90;;;-1.25;100.00;97266.94;5015175;28;20033;-55
2023/02/05 06:35:53;;;;;;;279.58;25.52;;;3.70;70.00;;;-1.30;100.00;97271.78;5026701;28;20028;-55
2023/02/05 06:38:22;;;;;;;162.77;21.98;;;3.70;70.00;;;-1.36;100.00;97272.38;5014011;28;20122;-51
2023/02/05 06:40:48;;;;;;;807.90;78.78;;;3.70;69.80;;;-1.34;100.00;97267.84;5008142;28;20476;-52
2023/02/05 06:43:14;;;;;;;221.77;34.65;;;3.70;69.80;;;-1.34;100.00;97266.03;4981351;28;20558;-52
2023/02/05 06:45:40;;;;;;;75.75;20.55;;;3.70;70.50;;;-1.31;100.00;97267.53;5019317;28;20043;-54
2023/02/05 06:48:09;;;;;;;74.45;20.73;;;3.70;69.80;;;-1.29;100.00;97276.84;5016053;28;20429;-54
2023/02/05 06:50:38;;;;;;;58.53;18.33;;;3.70;69.90;;;-1.28;100.00;97283.75;5021470;28;20032;-59
2023/02/05 06:53:04;;;;;;;88.43;20.85;;;3.70;69.90;;;-1.28;100.00;97283.75;5009760;28;20083;-50
2023/02/05 06:55:30;;;;;;;54.10;17.48;;;3.70;69.90;;;-1.24;100.00;97285.06;4991502;28;20028;-51
2023/02/05 06:57:55;;;;;;;78.70;18.40;;;3.80;70.00;;;-1.20;100.00;97275.13;5034516;28;20048;-53
2023/02/05 07:00:21;;;;;;;64.82;16.10;;;3.90;69.90;;;-1.25;100.00;97274.78;5027243;28;20107;-54
2023/02/05 07:02:54;;;;;;;116.60;20.35;;;3.90;69.80;;;-1.21;100.00;97284.78;5007403;28;20043;-51
2023/02/05 07:05:20;;;;;;;82.50;18.45;;;3.90;70.60;;;-1.19;100.00;97293.31;5028287;28;20480;-50
2023/02/05 07:07:46;;;;;;;555.75;41.58;;;4.00;69.70;;;-1.18;100.00;97294.13;5012428;28;20467;-54
2023/02/05 07:10:14;;;;;;;554.00;40.92;;;4.00;69.60;;;-1.18;100.00;97300.19;5030854;28;20074;-51
2023/02/05 07:12:40;;;;;;;391.92;32.08;;;4.10;69.60;;;-1.18;100.00;97305.41;5028086;28;20033;-51
2023/02/05 07:15:06;;;;;;;615.65;44.80;;;4.10;69.60;;;-1.18;100.00;97296.75;5030514;28;20027;-50
2023/02/05 07:17:38;;;;;;;320.13;27.25;;;4.10;69.50;;;-1.14;100.00;97294.66;5030320;28;20082;-54
2023/02/05 07:20:05;;;;;;;312.30;28.33;;;4.10;69.50;;;-1.10;100.00;97295.97;5010466;28;20024;-52
2023/02/05 07:22:31;;;;;;;206.48;25.17;;;4.20;69.60;;;-1.06;100.00;97286.88;5030791;28;20432;-49
2023/02/05 07:24:57;;;;;;;92.15;19.85;;;4.20;69.60;;;-0.98;100.00;97302.63;5028092;28;20151;-51
2023/02/05 07:27:23;;;;;;;63.75;17.13;;;4.30;69.60;;;-0.94;100.00;97306.59;5012220;28;20068;-55
2023/02/05 07:29:52;;;;;;;209.75;24.65;;;4.30;69.60;;;-0.90;100.00;97309.75;5031123;28;20159;-50
2023/02/05 07:32:21;;;;;;;91.43;20.15;;;4.40;69.60;;;-0.84;100.00;97309.97;5026896;28;20429;-51
2023/02/05 07:34:58;;;;;;;79.97;20.60;;;4.40;69.60;;;-0.81;100.00;97316.69;5030395;28;20057;-52
2023/02/05 07:37:27;;;;;;;78.30;21.50;;;4.50;69.70;;;-0.74;100.00;97320.34;5029652;28;20514;-54
2023/02/05 07:39:52;;;;;;;111.30;23.58;;;4.60;69.60;;;-0.67;100.00;97320.56;5019233;28;20075;-55
2023/02/05 07:42:18;;;;;;;167.77;24.23;;;4.70;69.60;;;-0.61;100.00;97319.97;4983628;28;23028;-52
2023/02/05 07:44:44;;;;;;;408.05;33.60;;;4.70;69.50;;;-0.56;100.00;97328.19;5018919;28;20024;-51
2023/02/05 07:47:13;;;;;;;172.50;23.20;;;4.80;69.50;;;-0.50;100.00;97343.28;5017219;28;20098;-53
2023/02/05 07:49:42;;;;;;;206.60;25.98;;;4.90;69.50;;;-0.43;100.00;97338.25;5018321;28;20073;-56
2023/02/05 07:52:11;;;;;;;332.20;29.33;;;5.00;69.40;;;-0.37;100.00;97337.66;5027195;28;20059;-52
2023/02/05 07:54:37;;;;;;;230.02;25.02;;;5.10;69.30;;;-0.28;100.00;97339.34;5028353;28;20052;-56
2023/02/05 07:57:06;;;;;;;144.70;22.60;;;5.20;69.30;;;-0.25;100.00;97339.06;5017561;28;20055;-50
2023/02/05 07:59:42;;;;;;;230.70;24.90;;;5.30;69.20;;;-0.18;100.00;97347.13;5023910;28;20055;-53
2023/02/05 08:02:11;;;;;;;332.30;30.38;;;5.40;69.10;;;-0.15;100.00;97344.19;5011647;28;20021;-58
2023/02/05 08:04:39;;;;;;;449.45;37.28;;;5.50;69.00;;;-0.20;100.00;97354.28;4999546;28;20475;-50
2023/02/05 08:07:05;;;;;;;347.48;30.33;;;5.50;68.90;;;-0.17;100.00;97346.94;5007135;28;20482;-51
2023/02/05 08:09:32;;;;;;;378.42;35.38;;;5.60;68.80;;;-0.08;100.00;97346.03;5025599;28;20064;-51
2023/02/05 08:11:58;;;;;;;495.40;34.17;;;5.60;68.80;;;-0.08;100.00;97345.22;4990198;28;20122;-51
2023/02/05 08:14:23;;;;;;;706.03;47.67;;;5.60;68.70;;;-0.03;100.00;97335.09;5011833;28;20107;-57
2023/02/05 08:16:49;;;;;;;374.52;31.45;;;5.60;68.70;;;-0.02;100.00;97334.09;5011189;28;20515;-49
2023/02/05 08:19:17;;;;;;;204.52;25.05;;;5.60;68.60;;;0.02;100.00;97337.22;5023648;28;20021;-58
2023/02/05 08:21:44;;;;;;;408.98;31.05;;;5.60;68.70;;;0.01;100.00;97344.28;5007471;28;20036;-50
2023/02/05 08:24:19;;;;;;;371.33;29.98;;;5.60;68.70;;;0.05;100.00;97344.78;5042286;28;20078;-50
2023/02/05 08:26:48;;;;;;;309.35;26.92;;;5.60;68.70;;;0.08;100.00;97336.63;4998562;23;20053;-56
2023/02/05 08:29:13;;;;;;;384.25;28.95;;;5.70;68.70;;;0.09;100.00;97340.88;4972362;28;20034;-58
2023/02/05 08:31:42;;;;;;;454.65;33.03;;;5.70;68.60;;;0.11;100.00;97337.13;4971738;28;20084;-56
2023/02/05 08:34:08;;;;;;;305.15;27.25;;;5.90;68.60;;;0.23;100.00;97332.44;4973361;28;20020;-59
2023/02/05 08:36:34;;;;;;;132.93;18.98;;;6.00;68.50;;;0.34;100.00;97326.91;4976237;28;20489;-57
2023/02/05 08:39:00;;;;;;;239.05;24.85;;;6.10;68.50;;;0.28;100.00;97324.09;4982580;28;20018;-59
2023/02/05 08:41:27;;;;;;;301.00;27.30;;;6.10;68.30;;;0.29;100.00;97323.13;4990310;28;20022;-55
2023/02/05 08:43:55;;;;;;;173.48;17.90;;;6.20;68.20;;;0.39;100.00;97327.25;4990210;28;20090;-56
2023/02/05 08:46:24;;;;;;;212.05;23.45;;;6.40;68.10;;;0.39;100.00;97327.25;4988581;28;20022;-59
2023/02/05 08:48:53;;;;;;;327.77;26.80;;;6.50;67.90;;;0.48;100.00;97335.97;4975834;28;20157;-58
2023/02/05 08:51:21;;;;;;;362.80;26.80;;;6.60;67.60;;;0.55;100.00;97323.88;4985915;28;20038;-57
2023/02/05 08:53:48;;;;;;;259.17;22.75;;;6.70;67.60;;;0.56;100.00;97316.81;4959002;28;20033;-58
2023/02/05 08:56:15;;;;;;;276.42;24.58;;;6.70;67.50;;;0.61;100.00;97315.38;4972188;28;20021;-56
2023/02/05 08:58:44;;;;;;;192.45;20.55;;;6.70;67.40;;;0.66;100.00;97320.16;4989547;28;20021;-53
2023/02/05 09:01:15;;;;;;;207.18;19.35;;;6.70;67.30;;;0.58;100.00;97302.56;4983431;28;20117;-57
2023/02/05 09:03:45;;;;;;;172.68;21.42;;;6.70;67.20;;;0.55;100.00;97297.66;4982713;28;20082;-56
2023/02/05 09:06:15;;;;;;;244.48;23.60;;;6.70;67.20;;;0.48;100.00;97294.03;4988829;28;20339;-58
2023/02/05 09:08:41;;;;;;;148.57;20.80;;;6.60;67.10;;;0.51;100.00;97292.91;4983534;28;20018;-55
2023/02/05 09:11:08;;;;;;;158.98;21.90;;;6.50;67.10;;;0.58;100.00;97299.13;4981813;28;20032;-57
2023/02/05 09:13:44;;;;;;;155.65;21.30;;;6.50;67.20;;;0.66;100.00;97301.78;4983543;28;20053;-60
2023/02/05 09:16:16;;;;;;;147.25;21.77;;;6.50;67.40;;;0.74;100.00;97290.47;4988827;28;20030;-60
2023/02/05 09:18:41;;;;;;;122.40;18.77;;;6.60;67.50;;;0.74;100.00;97303.59;4988831;28;20342;-58
2023/02/05 09:21:12;;;;;;;88.50;19.63;;;6.70;67.50;;;0.78;100.00;97307.53;4980596;28;20084;-60
2023/02/05 09:23:37;;;;;;;189.85;25.42;;;6.80;67.40;;;0.91;100.00;97313.16;4970866;28;20030;-59
2023/02/05 09:26:05;;;;;;;75.38;19.15;;;6.90;67.50;;;0.98;100.00;97305.47;4989046;28;20049;-58
2023/02/05 09:28:36;;;;;;;84.57;19.58;;;6.90;67.40;;;1.08;100.00;97299.06;4969784;28;20038;-59
2023/02/05 09:31:19;;;;;;;78.13;19.48;;;7.00;67.50;;;1.18;100.00;97284.97;4974818;28;20056;-56
2023/02/05 09:33:48;;;;;;;68.90;17.95;;;7.10;67.60;;;1.24;100.00;97293.00;4988063;28;20033;-60
2023/02/05 09:36:23;;;;;;;74.32;20.02;;;7.20;67.60;;;1.36;100.00;97289.06;4956922;28;20029;-57
2023/02/05 09:38:53;;;;;;;60.28;17.92;;;7.40;67.50;;;1.43;100.00;97289.22;4972505;28;20026;-58
2023/02/05 09:42:23;;;;;;;82.65;19.75;;;7.50;67.30;;;1.39;100.00;97285.28;4971375;28;20025;-58
2023/02/05 09:45:16;;;;;;;75.18;19.58;;;7.60;67.20;;;1.41;100.00;97272.81;4954492;28;20037;-59
2023/02/05 09:48:36;;;;;;;75.32;20.42;;;7.60;67.10;;;1.51;100.00;97278.72;4976663;28;20520;-60
2023/02/05 09:51:04;;;;;;;69.13;19.27;;;7.60;67.00;;;1.61;100.00;97268.03;4927740;28;20045;-59
2023/02/05 09:53:56;;;;;;;91.78;20.05;;;7.60;67.10;;;1.72;100.00;97258.97;4989183;28;20068;-58
2023/02/05 09:56:25;;;;;;;71.07;19.58;;;7.70;67.20;;;1.78;100.00;97253.03;4972029;28;20053;-57
2023/02/05 09:58:54;;;;;;;91.05;18.63;;;7.70;67.20;;;1.83;100.00;97253.38;4985528;28;20480;-55
2023/02/05 10:02:02;;;;;;;82.35;20.25;;;7.70;67.30;;;1.81;100.00;97248.25;4980895;28;20033;-57
2023/02/05 10:04:29;;;;;;;64.40;17.45;;;7.80;67.30;;;1.88;100.00;97234.44;4980745;28;20095;-60
2023/02/05 10:07:15;;;;;;;63.67;18.58;;;7.80;67.20;;;1.90;100.00;97235.09;4970530;28;20108;-59
2023/02/05 10:10:19;;;;;;;70.07;19.48;;;7.80;67.20;;;1.93;100.00;97217.19;4983937;28;20033;-58
2023/02/05 10:13:27;;;;;;;58.83;17.65;;;7.90;67.20;;;1.97;100.00;97213.22;4981324;28;20409;-58
2023/02/05 10:16:39;;;;;;;54.20;17.02;;;7.90;67.10;;;2.07;100.00;97207.78;4979090;28;20026;-57
2023/02/05 10:19:19;;;;;;;56.85;17.25;;;8.00;67.20;;;2.11;100.00;97192.47;4965784;28;20044;-57
2023/02/05 10:23:33;;;;;;;54.88;17.20;;;8.10;67.30;;;2.20;100.00;97191.47;4986756;28;20026;-59
2023/02/05 10:26:17;;;;;;;51.42;18.02;;;8.20;67.20;;;2.29;100.00;97182.53;4963929;28;20053;-53
2023/02/05 10:29:02;;;;;;;54.88;17.67;;;8.30;67.20;;;2.48;100.00;97181.25;4964064;28;20036;-57
2023/02/05 10:32:23;;;;;;;48.88;18.05;;;8.40;67.20;;;2.58;100.00;97167.88;4970305;28;20162;-54
2023/02/05 10:35:04;;;;;;;52.95;18.17;;;8.60;67.10;;;2.67;100.00;97172.09;4960538;28;20394;-57
2023/02/05 10:37:49;;;;;;;52.25;18.63;;;8.80;67.20;;;2.79;100.00;97165.41;4962284;28;20120;-57
2023/02/05 10:40:28;;;;;;;46.42;17.23;;;8.90;67.00;;;2.83;100.00;97161.44;4973993;28;21070;-57
2023/02/05 10:43:23;;;;;;;43.25;18.52;;;9.00;67.00;;;2.88;100.00;97176.69;4980902;28;20052;-53